^^
Saratoga-Weather Station Historical Data
Daily Summary for May 30, 2020 Units:  Metric    English   Both
Daily Weekly Monthly Yearly Custom
  High: Low: Average:
Temperature: 11.4 °C 3 °C 6.7 °C
Dew Point: 10.8 °C 2 °C 5.5 °C
Humidity: 97% 76% 92%
Wind Speed: 22.7km/h 0km/h 0.1km/h
Wind Gust: 25.7km/h - -
Wind- - West
Pressure: 1016.9 hPa 1007.5 hPa -
Precipitation: 4.3 mm    
Historical Graphs
 
 
Tabular Data for May 30, 2020
Time Temperature Dew Point Pressure Wind Wind Speed Wind Gust Humidity Rainfall Rate (Hourly) solar
00:01 4.1 °C 3.1 °C 1016.9 hPa Calm     93% 0.0 mm 0 W/m2
00:06 4 °C 3 °C 1016.9 hPa Calm     93% 0.0 mm 0 W/m2
00:11 4 °C 3 °C 1016.9 hPa Calm     93% 0.0 mm 0 W/m2
00:16 4 °C 3 °C 1016.9 hPa Calm   1.6 km/h 93% 0.0 mm 0 W/m2
00:21 4.1 °C 3.1 °C 1016.9 hPa Calm     93% 0.0 mm 0 W/m2
00:26 4.1 °C 3.1 °C 1016.9 hPa Calm     93% 0.0 mm 0 W/m2
00:31 4.1 °C 3.1 °C 1016.9 hPa Calm     93% 0.0 mm 0 W/m2
00:36 4.1 °C 3.1 °C 1016.9 hPa Calm     93% 0.0 mm 0 W/m2
00:41 4.1 °C 3.1 °C 1016.9 hPa Calm     93% 0.0 mm 0 W/m2
00:46 4.1 °C 3.1 °C 1016.9 hPa Calm     93% 0.0 mm 0 W/m2
00:51 4.1 °C 3.1 °C 1016.9 hPa Calm     93% 0.0 mm 0 W/m2
00:56 4.1 °C 3.1 °C 1016.9 hPa Calm     93% 0.0 mm 0 W/m2
01:02 4.1 °C 3.1 °C 1016.9 hPa Calm     93% 0.0 mm 0 W/m2
01:07 4.1 °C 3.1 °C 1016.9 hPa Calm     93% 0.0 mm 0 W/m2
01:12 4.1 °C 3.1 °C 1016.9 hPa Calm     93% 0.0 mm 0 W/m2
01:17 4.1 °C 3.1 °C 1016.9 hPa Calm     93% 0.0 mm 0 W/m2
01:22 4.1 °C 3.1 °C 1016.9 hPa Calm     93% 0.0 mm 0 W/m2
01:27 4.1 °C 3.1 °C 1016.9 hPa Calm     93% 0.0 mm 0 W/m2
01:32 4.1 °C 3.1 °C 1016.6 hPa Calm     93% 0.0 mm 0 W/m2
01:37 4 °C 3 °C 1016.6 hPa Calm     93% 0.0 mm 0 W/m2
01:42 3.9 °C 2.9 °C 1016.6 hPa Calm     93% 0.0 mm 0 W/m2
01:47 3.9 °C 2.9 °C 1016.6 hPa Calm     93% 0.0 mm 0 W/m2
01:52 3.9 °C 2.9 °C 1016.6 hPa Calm   1.6 km/h 93% 0.0 mm 0 W/m2
01:57 3.9 °C 2.9 °C 1016.6 hPa Calm     93% 0.0 mm 0 W/m2
02:02 3.9 °C 2.9 °C 1016.6 hPa Calm   1.6 km/h 93% 0.0 mm 0 W/m2
02:07 3.9 °C 2.9 °C 1016.6 hPa Calm     93% 0.0 mm 0 W/m2
02:12 3.9 °C 2.9 °C 1016.6 hPa Calm     93% 0.0 mm 0 W/m2
02:17 3.9 °C 2.9 °C 1016.6 hPa Calm     93% 0.0 mm 0 W/m2
02:22 3.9 °C 2.9 °C 1016.6 hPa Calm     93% 0.0 mm 0 W/m2
02:27 3.8 °C 2.8 °C 1016.3 hPa Calm   1.6 km/h 93% 0.0 mm 0 W/m2
02:32 3.9 °C 2.9 °C 1016.3 hPa Calm     93% 0.0 mm 0 W/m2
02:37 3.9 °C 2.9 °C 1016.3 hPa Calm     93% 0.0 mm 0 W/m2
02:42 3.9 °C 2.9 °C 1016.3 hPa Calm     93% 0.0 mm 0 W/m2
02:47 3.9 °C 2.9 °C 1016.3 hPa Calm     93% 0.0 mm 0 W/m2
02:52 3.8 °C 2.8 °C 1016.6 hPa Calm   1.6 km/h 93% 0.0 mm 0 W/m2
02:57 3.8 °C 2.8 °C 1016.3 hPa Calm     93% 0.0 mm 0 W/m2
03:02 3.8 °C 2.8 °C 1016.6 hPa Calm     93% 0.0 mm 0 W/m2
03:07 3.8 °C 2.8 °C 1016.3 hPa Calm     93% 0.0 mm 0 W/m2
03:12 3.8 °C 2.8 °C 1016.6 hPa Calm     93% 0.0 mm 0 W/m2
03:18 3.8 °C 2.8 °C 1016.6 hPa Calm     93% 0.0 mm 0 W/m2
03:23 3.7 °C 2.7 °C 1016.6 hPa Calm     93% 0.0 mm 0 W/m2
03:28 3.7 °C 2.7 °C 1016.3 hPa Calm     93% 0.0 mm 0 W/m2
03:33 3.6 °C 2.6 °C 1016.3 hPa Calm     93% 0.0 mm 0 W/m2
03:38 3.6 °C 2.6 °C 1016.3 hPa Calm     93% 0.0 mm 0 W/m2
03:43 3.5 °C 2.5 °C 1016.3 hPa Calm     93% 0.0 mm 0 W/m2
03:48 3.5 °C 2.5 °C 1015.9 hPa Calm     93% 0.0 mm 0 W/m2
03:53 3.6 °C 2.7 °C 1016.3 hPa Calm     94% 0.0 mm 0 W/m2
03:58 3.6 °C 2.7 °C 1015.9 hPa Calm     94% 0.0 mm 0 W/m2
04:03 3.6 °C 2.6 °C 1015.9 hPa Calm     93% 0.0 mm 0 W/m2
04:08 3.6 °C 2.6 °C 1015.9 hPa Calm     93% 0.0 mm 0 W/m2
04:13 3.5 °C 2.6 °C 1015.9 hPa Calm     94% 0.0 mm 0 W/m2
04:18 3.6 °C 2.7 °C 1015.9 hPa Calm     94% 0.0 mm 0 W/m2
04:23 3.4 °C 2.4 °C 1015.9 hPa Calm     93% 0.0 mm 0 W/m2
04:28 3.4 °C 2.5 °C 1015.9 hPa Calm     94% 0.0 mm 0 W/m2
04:33 3.5 °C 2.6 °C 1015.6 hPa Calm     94% 0.0 mm 0 W/m2
04:38 3.5 °C 2.6 °C 1015.6 hPa Calm     94% 0.0 mm 0 W/m2
04:43 3.5 °C 2.6 °C 1015.6 hPa Calm     94% 0.0 mm 0 W/m2
04:48 3.6 °C 2.7 °C 1015.6 hPa Calm     94% 0.0 mm 0 W/m2
04:53 3.6 °C 2.7 °C 1015.6 hPa Calm     94% 0.0 mm 0 W/m2
04:58 3.7 °C 2.8 °C 1015.6 hPa Calm     94% 0.0 mm 0 W/m2
05:03 3.7 °C 2.8 °C 1015.6 hPa Calm     94% 0.0 mm 0 W/m2
05:09 3.7 °C 2.7 °C 1015.6 hPa Calm     93% 0.0 mm 0 W/m2
05:14 3.7 °C 2.7 °C 1015.6 hPa Calm     93% 0.0 mm 0 W/m2
05:19 3.7 °C 2.7 °C 1015.6 hPa Calm     93% 0.0 mm 0 W/m2
05:24 3.6 °C 2.6 °C 1015.6 hPa Calm     93% 0.0 mm 0 W/m2
05:29 3.5 °C 2.5 °C 1015.6 hPa Calm     93% 0.0 mm 0 W/m2
05:34 3.3 °C 2.3 °C 1015.2 hPa Calm     93% 0.0 mm 0 W/m2
05:39 3.1 °C 2.1 °C 1015.2 hPa Calm     93% 0.0 mm 0 W/m2
05:44 3 °C 2 °C 1015.2 hPa Calm     93% 0.0 mm 0 W/m2
05:49 3 °C 2.1 °C 1015.2 hPa Calm     94% 0.0 mm 0 W/m2
05:54 3.2 °C 2.3 °C 1015.2 hPa Calm     94% 0.0 mm 0 W/m2
06:00 3.2 °C 2.3 °C 1015.2 hPa Calm     94% 0.0 mm 0 W/m2
06:05 3.2 °C 2.5 °C 1015.2 hPa Calm     95% 0.0 mm 0 W/m2
06:10 3.3 °C 2.6 °C 1015.2 hPa Calm   1.6 km/h 95% 0.0 mm 0 W/m2
06:15 3.5 °C 2.8 °C 1015.2 hPa Calm     95% 0.0 mm 0 W/m2
06:20 3.7 °C 3 °C 1015.2 hPa Calm     95% 0.0 mm 0 W/m2
06:25 3.9 °C 3.2 °C 1015.2 hPa Calm     95% 0.0 mm 0 W/m2
06:30 4.1 °C 3.4 °C 1015.2 hPa Calm     95% 0.0 mm 0 W/m2
06:35 4.1 °C 3.2 °C 1015.2 hPa Calm     94% 0.0 mm 0 W/m2
06:40 4.2 °C 3.3 °C 1015.2 hPa Calm     94% 0.0 mm 0 W/m2
06:45 4.3 °C 3.4 °C 1014.9 hPa Calm     94% 0.0 mm 0 W/m2
06:50 4.4 °C 3.5 °C 1014.9 hPa Calm     94% 0.0 mm 0 W/m2
06:55 4.4 °C 3.5 °C 1014.9 hPa Calm     94% 0.0 mm 0 W/m2
07:00 4.5 °C 3.6 °C 1015.2 hPa Calm     94% 0.0 mm 0 W/m2
07:05 4.5 °C 3.6 °C 1014.9 hPa Calm     94% 0.0 mm 0 W/m2
07:10 4.6 °C 3.6 °C 1014.9 hPa Calm     93% 0.0 mm 0 W/m2
07:15 4.6 °C 3.7 °C 1014.9 hPa Calm     94% 0.0 mm 0 W/m2
07:20 4.6 °C 3.6 °C 1014.9 hPa Calm     93% 0.0 mm 0 W/m2
07:25 4.6 °C 3.6 °C 1014.9 hPa Calm     93% 0.0 mm 0 W/m2
07:30 4.6 °C 3.6 °C 1014.9 hPa Calm     93% 0.0 mm 0 W/m2
07:35 4.6 °C 3.6 °C 1014.9 hPa Calm     93% 0.0 mm 0 W/m2
07:40 4.6 °C 3.6 °C 1014.9 hPa Calm     93% 0.0 mm 0 W/m2
07:45 4.5 °C 3.5 °C 1014.9 hPa Calm     93% 0.0 mm 0 W/m2
07:50 4.3 °C 3.3 °C 1014.9 hPa Calm     93% 0.0 mm 0 W/m2
07:55 4.1 °C 2.9 °C 1014.9 hPa Calm     92% 0.0 mm 0 W/m2
08:00 3.9 °C 2.9 °C 1014.9 hPa Calm     93% 0.0 mm 0 W/m2
08:05 3.8 °C 2.8 °C 1014.9 hPa Calm     93% 0.0 mm 5 W/m2
08:10 3.6 °C 2.6 °C 1014.6 hPa Calm     93% 0.0 mm 7 W/m2
08:15 3.7 °C 2.8 °C 1014.9 hPa Calm     94% 0.0 mm 5 W/m2
08:20 3.7 °C 2.8 °C 1014.9 hPa Calm     94% 0.0 mm 9 W/m2
08:25 3.6 °C 2.7 °C 1014.9 hPa Calm     94% 0.0 mm 12 W/m2
08:30 3.5 °C 2.6 °C 1014.9 hPa Calm     94% 0.0 mm 18 W/m2
08:35 3.4 °C 2.5 °C 1014.6 hPa Calm     94% 0.0 mm 23 W/m2
08:40 3.3 °C 2.4 °C 1014.9 hPa Calm     94% 0.0 mm 28 W/m2
08:45 3.3 °C 2.4 °C 1014.9 hPa Calm     94% 0.0 mm 30 W/m2
08:50 3.3 °C 2.6 °C 1014.6 hPa Calm     95% 0.0 mm 35 W/m2
08:55 3.3 °C 2.6 °C 1014.6 hPa Calm     95% 0.0 mm 42 W/m2
09:00 3.4 °C 2.7 °C 1014.9 hPa Calm     95% 0.0 mm 46 W/m2
09:05 3.4 °C 2.7 °C 1014.9 hPa Calm     95% 0.0 mm 47 W/m2
09:10 3.5 °C 2.8 °C 1014.9 hPa Calm     95% 0.0 mm 46 W/m2
09:15 3.6 °C 2.9 °C 1014.6 hPa Calm     95% 0.0 mm 47 W/m2
09:20 3.6 °C 2.9 °C 1014.6 hPa Calm     95% 0.0 mm 47 W/m2
09:25 3.6 °C 2.9 °C 1014.6 hPa Calm     95% 0.0 mm 49 W/m2
09:30 3.7 °C 3 °C 1014.6 hPa Calm     95% 0.0 mm 56 W/m2
09:35 3.8 °C 3.2 °C 1014.6 hPa Calm     96% 0.0 mm 62 W/m2
09:40 3.9 °C 3.3 °C 1014.6 hPa Calm     96% 0.0 mm 76 W/m2
09:45 3.9 °C 3.3 °C 1014.6 hPa Calm     96% 0.0 mm 81 W/m2
09:50 4.1 °C 3.5 °C 1014.6 hPa Calm     96% 0.0 mm 88 W/m2
09:55 4.2 °C 3.6 °C 1014.6 hPa Calm     96% 0.0 mm 91 W/m2
10:00 4.3 °C 3.7 °C 1014.2 hPa Calm     96% 0.0 mm 100 W/m2
10:05 4.4 °C 3.8 °C 1014.2 hPa Calm     96% 0.0 mm 98 W/m2
10:10 4.6 °C 4 °C 1014.2 hPa Calm     96% 0.0 mm 97 W/m2
10:15 4.7 °C 4.1 °C 1014.2 hPa Calm     96% 0.0 mm 98 W/m2
10:20 4.9 °C 4.3 °C 1014.2 hPa Calm     96% 0.0 mm 93 W/m2
10:26 5.1 °C 4.4 °C 1014.2 hPa Calm     95% 0.0 mm 91 W/m2
10:31 5.2 °C 4.5 °C 1014.2 hPa Calm     95% 0.0 mm 97 W/m2
10:36 5.4 °C 4.7 °C 1014.2 hPa Calm     95% 0.0 mm 109 W/m2
10:41 5.5 °C 4.8 °C 1014.2 hPa Calm     95% 0.0 mm 114 W/m2
10:46 5.7 °C 4.8 °C 1013.9 hPa Calm     94% 0.0 mm 123 W/m2
10:51 5.9 °C 5 °C 1013.9 hPa Calm     94% 0.0 mm 120 W/m2
10:56 6.2 °C 5.3 °C 1013.9 hPa Calm     94% 0.0 mm 121 W/m2
11:01 6.4 °C 5.4 °C 1013.9 hPa Calm     93% 0.0 mm 127 W/m2
11:06 6.6 °C 5.4 °C 1013.9 hPa Calm     92% 0.0 mm 128 W/m2
11:11 6.8 °C 5.4 °C 1013.9 hPa Calm     91% 0.0 mm 132 W/m2
11:16 6.9 °C 5.5 °C 1013.9 hPa Calm     91% 0.0 mm 134 W/m2
11:21 7.2 °C 5.7 °C 1013.9 hPa Calm     90% 0.0 mm 142 W/m2
11:26 7.3 °C 5.6 °C 1013.5 hPa Calm     89% 0.0 mm 153 W/m2
11:31 7.4 °C 5.5 °C 1013.5 hPa Calm     88% 0.0 mm 153 W/m2
11:36 7.6 °C 5.6 °C 1013.5 hPa Calm     87% 0.0 mm 151 W/m2
11:41 7.7 °C 5.7 °C 1013.5 hPa Calm     87% 0.0 mm 153 W/m2
11:46 7.8 °C 5.6 °C 1013.5 hPa Calm     86% 0.0 mm 156 W/m2
11:51 7.8 °C 5.4 °C 1013.5 hPa Calm     85% 0.0 mm 163 W/m2
11:56 7.9 °C 5.5 °C 1013.2 hPa Calm     85% 0.0 mm 176 W/m2
12:01 8 °C 5.5 °C 1013.2 hPa Calm     84% 0.0 mm 181 W/m2
12:06 8.1 °C 5.4 °C 1012.9 hPa Calm     83% 0.0 mm 176 W/m2
12:11 8.2 °C 5.5 °C 1012.9 hPa Calm   1.6 km/h 83% 0.0 mm 174 W/m2
12:16 8.3 °C 5.6 °C 1012.9 hPa Calm     83% 0.0 mm 179 W/m2
12:21 8.4 °C 5.5 °C 1012.5 hPa Calm   1.6 km/h 82% 0.0 mm 185 W/m2
12:26 8.4 °C 5.2 °C 1012.5 hPa Calm     80% 0.0 mm 193 W/m2
12:31 8.4 °C 5.2 °C 1012.5 hPa Calm     80% 0.0 mm 169 W/m2
12:36 8.4 °C 5.2 °C 1012.2 hPa Calm     80% 0.0 mm 151 W/m2
12:41 8.5 °C 5.2 °C 1012.2 hPa Calm     80% 0.0 mm 148 W/m2
12:46 8.5 °C 5.2 °C 1012.2 hPa Calm     80% 0.0 mm 141 W/m2
12:51 8.6 °C 5.3 °C 1011.9 hPa Calm     80% 0.0 mm 137 W/m2
12:56 8.6 °C 5.3 °C 1011.9 hPa Calm     80% 0.0 mm 146 W/m2
13:01 8.6 °C 5.2 °C 1011.9 hPa Calm     79% 0.0 mm 148 W/m2
13:06 8.7 °C 5.3 °C 1011.9 hPa Calm     79% 0.0 mm 146 W/m2
13:11 8.7 °C 5.3 °C 1011.9 hPa Calm     79% 0.0 mm 153 W/m2
13:16 8.7 °C 5.1 °C 1011.9 hPa Calm     78% 0.0 mm 160 W/m2
13:21 8.8 °C 5.2 °C 1011.5 hPa Calm     78% 0.0 mm 155 W/m2
13:27 8.8 °C 5 °C 1011.5 hPa Calm     77% 0.0 mm 148 W/m2
13:32 8.9 °C 5.3 °C 1011.5 hPa Calm     78% 0.0 mm 153 W/m2
13:37 9.1 °C 5.3 °C 1011.2 hPa Calm     77% 0.0 mm 155 W/m2
13:42 9.1 °C 5.1 °C 1010.8 hPa Calm     76% 0.0 mm 146 W/m2
13:47 9.2 °C 5.4 °C 1010.8 hPa Calm     77% 0.0 mm 123 W/m2
13:52 9.2 °C 5.4 °C 1010.8 hPa Calm     77% 0.0 mm 125 W/m2
13:57 9.3 °C 5.5 °C 1010.8 hPa Calm     77% 0.0 mm 130 W/m2
14:02 9.3 °C 5.7 °C 1010.8 hPa Calm     78% 0.0 mm 137 W/m2
14:07 9.4 °C 5.9 °C 1010.8 hPa Calm     79% 0.0 mm 130 W/m2
14:13 9.4 °C 5.9 °C 1010.5 hPa Calm     79% 0.0 mm 74 W/m2
14:18 9.4 °C 5.9 °C 1010.5 hPa Calm     79% 0.0 mm 72 W/m2
14:23 9.3 °C 5.8 °C 1010.2 hPa Calm     79% 0.0 mm 70 W/m2
14:28 9.3 °C 6 °C 1010.2 hPa Calm     80% 0.0 mm 70 W/m2
14:33 9.2 °C 5.9 °C 1010.2 hPa Calm     80% 0.0 mm 76 W/m2
14:38 9.2 °C 6.1 °C 1009.8 hPa Calm     81% 0.0 mm 67 W/m2
14:43 9.1 °C 6 °C 1009.8 hPa Calm     81% 0.0 mm 51 W/m2
14:48 9.1 °C 6 °C 1009.8 hPa Calm     81% 0.0 mm 46 W/m2
14:53 9.1 °C 6 °C 1009.8 hPa Calm     81% 0.0 mm 53 W/m2
14:58 9.1 °C 6.2 °C 1009.8 hPa Calm     82% 0.0 mm 56 W/m2
15:03 8.9 °C 6.2 °C 1009.5 hPa Calm     83% 0.0 mm 32 W/m2
15:08 8.7 °C 6.3 °C 1009.5 hPa Calm     85% 0.0 mm 30 W/m2
15:13 8.5 °C 6.3 °C 1009.5 hPa Calm     86% 0.0 mm 26 W/m2
15:18 8.4 °C 6.4 °C 1009.5 hPa Calm     87% 0.0 mm 26 W/m2
15:23 8.3 °C 6.3 °C 1009.5 hPa Calm     87% 0.0 mm 25 W/m2
15:28 8.3 °C 6.4 °C 1009.5 hPa Calm     88% 0.0 mm 28 W/m2
15:33 8.3 °C 6.4 °C 1009.5 hPa Calm     88% 0.2 mm 32 W/m2
15:38 8.3 °C 6.4 °C 1009.5 hPa Calm     88% 0.2 mm 26 W/m2
15:43 8.3 °C 6.4 °C 1009.1 hPa Calm     88% 0.2 mm 30 W/m2
15:48 8.3 °C 6.4 °C 1009.1 hPa Calm     88% 0.2 mm 35 W/m2
15:53 8.3 °C 6.6 °C 1009.1 hPa Calm     89% 0.2 mm 30 W/m2
15:58 8.3 °C 6.6 °C 1009.1 hPa Calm     89% 0.5 mm 23 W/m2
16:03 8.3 °C 6.6 °C 1009.1 hPa Calm     89% 0.5 mm 21 W/m2
16:08 8.2 °C 6.7 °C 1009.1 hPa Calm     90% 0.5 mm 21 W/m2
16:13 8.2 °C 6.7 °C 1009.1 hPa Calm     90% 0.5 mm 18 W/m2
16:18 8.2 °C 6.7 °C 1008.8 hPa Calm     90% 0.5 mm 16 W/m2
16:23 8.2 °C 6.8 °C 1008.8 hPa Calm     91% 0.5 mm 14 W/m2
16:28 8.2 °C 6.8 °C 1008.8 hPa Calm     91% 0.5 mm 12 W/m2
16:34 8.1 °C 6.7 °C 1008.8 hPa Calm     91% 0.2 mm 12 W/m2
16:39 8.1 °C 6.7 °C 1008.8 hPa Calm     91% 0.5 mm 12 W/m2
16:44 8.1 °C 6.9 °C 1008.8 hPa Calm     92% 0.5 mm 11 W/m2
16:49 8 °C 6.8 °C 1008.8 hPa Calm     92% 0.5 mm 7 W/m2
16:54 7.9 °C 6.8 °C 1008.5 hPa Calm     93% 0.5 mm 7 W/m2
16:59 7.9 °C 6.8 °C 1008.5 hPa Calm     93% 0.5 mm 7 W/m2
17:04 7.9 °C 6.8 °C 1008.5 hPa Calm     93% 0.5 mm 5 W/m2
17:09 7.8 °C 6.7 °C 1008.5 hPa Calm     93% 0.5 mm 0 W/m2
17:14 7.8 °C 6.9 °C 1008.5 hPa Calm     94% 0.5 mm 0 W/m2
17:19 7.8 °C 6.9 °C 1008.5 hPa Calm     94% 0.5 mm 0 W/m2
17:24 7.8 °C 6.9 °C 1008.5 hPa Calm     94% 0.5 mm 0 W/m2
17:29 7.8 °C 6.9 °C 1008.5 hPa Calm     94% 0.5 mm 0 W/m2
17:34 7.8 °C 7 °C 1008.1 hPa Calm     95% 0.5 mm 0 W/m2
17:39 7.9 °C 7.1 °C 1008.1 hPa Calm     95% 0.5 mm 0 W/m2
17:44 7.9 °C 7.1 °C 1008.1 hPa Calm     95% 0.5 mm 0 W/m2
17:49 7.9 °C 7.1 °C 1008.1 hPa Calm   1.6 km/h 95% 0.5 mm 0 W/m2
17:54 8 °C 7.2 °C 1008.1 hPa Calm     95% 0.5 mm 0 W/m2
17:59 8 °C 7.2 °C 1008.1 hPa Calm   3.2 km/h 95% 0.5 mm 0 W/m2
18:04 8.1 °C 7.3 °C 1008.1 hPa Calm     95% 0.5 mm 0 W/m2
18:10 8.1 °C 7.3 °C 1008.1 hPa Calm   1.6 km/h 95% 0.5 mm 0 W/m2
18:15 8.1 °C 7.3 °C 1008.1 hPa Calm     95% 0.5 mm 0 W/m2
18:20 8.1 °C 7.3 °C 1008.1 hPa Calm     95% 0.5 mm 0 W/m2
18:25 8.2 °C 7.4 °C 1008.1 hPa Calm     95% 0.5 mm 0 W/m2
18:30 8.2 °C 7.4 °C 1008.1 hPa Calm     95% 0.8 mm 0 W/m2
18:35 8.2 °C 7.4 °C 1008.1 hPa Calm     95% 0.8 mm 0 W/m2
18:40 8.2 °C 7.6 °C 1008.1 hPa Calm     96% 0.5 mm 0 W/m2
18:45 8.2 °C 7.6 °C 1007.8 hPa Calm     96% 0.5 mm 0 W/m2
18:50 8.2 °C 7.6 °C 1007.8 hPa Calm     96% 0.5 mm 0 W/m2
18:55 8.2 °C 7.6 °C 1007.8 hPa Calm     96% 0.5 mm 0 W/m2
19:00 8.2 °C 7.6 °C 1007.8 hPa Calm     96% 0.5 mm 0 W/m2
19:05 8.2 °C 7.6 °C 1007.8 hPa Calm     96% 0.5 mm 0 W/m2
19:10 8.3 °C 7.7 °C 1007.5 hPa Calm     96% 0.5 mm 0 W/m2
19:15 8.4 °C 7.8 °C 1007.8 hPa Calm     96% 0.5 mm 0 W/m2
19:20 8.4 °C 7.8 °C 1007.8 hPa Calm     96% 0.5 mm 0 W/m2
19:25 8.5 °C 7.9 °C 1007.8 hPa Calm     96% 0.5 mm 0 W/m2
19:31 8.6 °C 8 °C 1007.8 hPa Calm     96% 0.5 mm 0 W/m2
19:36 8.7 °C 8.1 °C 1007.8 hPa Calm     96% 0.5 mm 0 W/m2
19:41 8.7 °C 8.1 °C 1007.8 hPa Calm     96% 0.5 mm 0 W/m2
19:46 8.8 °C 8.2 °C 1007.8 hPa Calm     96% 0.5 mm 0 W/m2
19:51 8.9 °C 8.3 °C 1007.8 hPa Calm     96% 0.5 mm 0 W/m2
19:56 9 °C 8.4 °C 1007.8 hPa Calm     96% 0.5 mm 0 W/m2
20:01 9.1 °C 8.5 °C 1007.8 hPa Calm     96% 0.5 mm 0 W/m2
20:06 9.2 °C 8.6 °C 1007.8 hPa Calm     96% 0.5 mm 0 W/m2
20:11 9.2 °C 8.6 °C 1007.8 hPa Calm     96% 0.5 mm 0 W/m2
20:16 9.2 °C 8.6 °C 1007.8 hPa Calm     96% 0.5 mm 0 W/m2
20:21 9.3 °C 8.7 °C 1007.8 hPa Calm     96% 0.5 mm 0 W/m2
20:26 9.3 °C 8.7 °C 1007.8 hPa Calm     96% 0.8 mm 0 W/m2
20:31 9.4 °C 8.8 °C 1007.8 hPa Calm     96% 1.3 mm 0 W/m2
20:36 9.5 °C 8.9 °C 1007.8 hPa Calm     96% 1.3 mm 0 W/m2
20:41 9.6 °C 9 °C 1007.8 hPa Calm     96% 1.3 mm 0 W/m2
20:46 9.8 °C 9.3 °C 1007.8 hPa Calm   1.6 km/h 97% 1.5 mm 0 W/m2
20:51 9.9 °C 9.4 °C 1007.8 hPa Calm     97% 1.3 mm 0 W/m2
20:56 10.1 °C 9.6 °C 1007.8 hPa Calm   1.6 km/h 97% 1.3 mm 0 W/m2
21:01 10.3 °C 9.8 °C 1007.8 hPa Calm     97% 1.3 mm 0 W/m2
21:06 10.4 °C 9.9 °C 1007.8 hPa Calm     97% 1.3 mm 0 W/m2
21:11 10.6 °C 10.1 °C 1007.8 hPa Calm     97% 1.3 mm 0 W/m2
21:16 10.7 °C 10.2 °C 1007.8 hPa Calm     97% 1.3 mm 0 W/m2
21:21 10.8 °C 10.3 °C 1007.8 hPa Calm   1.6 km/h 97% 1.0 mm 0 W/m2
21:26 10.9 °C 10.4 °C 1007.8 hPa Calm   1.6 km/h 97% 0.8 mm 0 W/m2
21:31 11 °C 10.5 °C 1007.8 hPa Calm     97% 0.5 mm 0 W/m2
21:36 11.1 °C 10.6 °C 1007.8 hPa Calm   1.6 km/h 97% 0.5 mm 0 W/m2
21:41 11.2 °C 10.6 °C 1008.1 hPa Calm     96% 0.5 mm 0 W/m2
21:46 11.3 °C 10.7 °C 1008.1 hPa Calm     96% 0.5 mm 0 W/m2
21:51 11.3 °C 10.7 °C 1008.1 hPa Calm     96% 0.5 mm 0 W/m2
21:56 11.3 °C 10.7 °C 1008.1 hPa Calm     96% 0.5 mm 0 W/m2
22:01 11.3 °C 10.7 °C 1008.1 hPa Calm   4.8 km/h 96% 0.5 mm 0 W/m2
22:06 11.4 °C 10.8 °C 1008.5 hPa Calm     96% 0.2 mm 0 W/m2
22:11 11.4 °C 10.8 °C 1008.5 hPa West 3.2 km/h 3.2 km/h 96% 0.2 mm 0 W/m2
22:16 11.4 °C 10.6 °C 1008.1 hPa Calm   22.5 km/h 95% 0.2 mm 0 W/m2
22:21 11.4 °C 10.6 °C 1008.1 hPa Calm     95% 0.2 mm 0 W/m2
22:26 11.4 °C 10.6 °C 1008.1 hPa Calm   12.9 km/h 95% 0.5 mm 0 W/m2
22:31 11.4 °C 10.6 °C 1008.5 hPa Calm   25.7 km/h 95% 0.2 mm 0 W/m2
22:36 11.4 °C 10.6 °C 1008.5 hPa Calm     95% 0.2 mm 0 W/m2
22:41 11.4 °C 10.6 °C 1008.5 hPa Calm   9.7 km/h 95% 0.2 mm 0 W/m2
22:46 11.4 °C 10.6 °C 1008.5 hPa Calm     95% 0.2 mm 0 W/m2
22:51 11.4 °C 10.6 °C 1008.5 hPa Calm   1.6 km/h 95% 0.2 mm 0 W/m2
22:56 11.4 °C 10.6 °C 1008.5 hPa Calm   6.4 km/h 95% 0.2 mm 0 W/m2
23:01 11.4 °C 10.6 °C 1008.8 hPa Calm     95% 0.2 mm 0 W/m2
23:06 11.4 °C 10.6 °C 1008.8 hPa Calm     95% 0.2 mm 0 W/m2
23:11 11.4 °C 10.6 °C 1008.8 hPa Calm     95% 0.2 mm 0 W/m2
23:16 11.4 °C 10.6 °C 1008.8 hPa Calm     95% 0.5 mm 0 W/m2
23:21 11.4 °C 10.6 °C 1008.8 hPa Calm     95% 0.5 mm 0 W/m2
23:26 11.4 °C 10.6 °C 1008.8 hPa Calm     95% 0.2 mm 0 W/m2
23:31 11.4 °C 10.8 °C 1008.8 hPa Calm     96% 0.2 mm 0 W/m2
23:36 11.4 °C 10.8 °C 1008.8 hPa Calm     96% 0.2 mm 0 W/m2
23:41 11.4 °C 10.8 °C 1008.8 hPa Calm     96% 0.2 mm 0 W/m2
23:46 11.4 °C 10.8 °C 1008.8 hPa West 22.7 km/h 22.5 km/h 96% 0.2 mm 0 W/m2
23:51 11.4 °C 10.8 °C 1009.1 hPa Calm     96% 0.2 mm 0 W/m2
23:56 11.4 °C 10.6 °C 1009.1 hPa Calm   24.1 km/h 95% 0.2 mm 0 W/m2
Juneau County Weather
Compliments of Weather Underground - 4 mb